Time;durP1;ratioP1;P1;durP2;ratioP2;P2;SDS_P1;SDS_P2;PMS_P1;PMS_P2;Temp;Humidity;BMP_temperature;BMP_pressure;BME280_temperature;BME280_humidity;BME280_pressure;Samples;Min_cycle;Max_cycle;Signal;HPM_P1;HPM_P2
2022/04/11 00:00:08;;;;;;;9.60;3.10;;;23.10;99.90;;;;;;4992144;28;20038;-68
2022/04/11 00:02:35;;;;;;;10.07;3.72;;;23.10;99.90;;;;;;5008876;28;20040;-68
2022/04/11 00:05:04;;;;;;;4.15;2.50;;;23.20;99.90;;;;;;5017894;28;20458;-68
2022/04/11 00:07:31;;;;;;;10.45;2.53;;;23.30;99.90;;;;;;5011621;28;20053;-68
2022/04/11 00:09:59;;;;;;;6.88;2.40;;;23.50;99.90;;;;;;5023876;23;20076;-67
2022/04/11 00:12:29;;;;;;;6.25;2.88;;;23.70;99.90;;;;;;5042842;28;20029;-68
2022/04/11 00:14:58;;;;;;;6.57;2.38;;;23.50;99.90;;;;;;5047574;28;20405;-68
2022/04/11 00:17:25;;;;;;;6.13;2.70;;;23.70;99.90;;;;;;5049403;28;20090;-68
2022/04/11 00:19:52;;;;;;;4.80;2.33;;;23.90;99.90;;;;;;5084769;22;20467;-68
2022/04/11 00:22:20;;;;;;;4.63;2.42;;;24.00;99.90;;;;;;5052575;28;20115;-68
2022/04/11 00:24:49;;;;;;;6.68;2.00;;;24.10;99.90;;;;;;5050421;28;20039;-68
2022/04/11 00:27:16;;;;;;;4.85;2.05;;;24.20;99.90;;;;;;5066807;28;20488;-68
2022/04/11 00:29:44;;;;;;;4.68;2.10;;;24.20;99.90;;;;;;5053453;28;20028;-68
2022/04/11 00:32:11;;;;;;;4.43;1.88;;;24.30;99.90;;;;;;5053436;28;20024;-68
2022/04/11 00:34:39;;;;;;;3.67;1.95;;;24.40;99.90;;;;;;5072521;28;20481;-68
2022/04/11 00:37:06;;;;;;;5.82;2.17;;;24.50;99.90;;;;;;5070700;28;20029;-68
2022/04/11 00:39:33;;;;;;;6.43;2.08;;;24.30;99.90;;;;;;5070817;28;20025;-68
2022/04/11 00:42:09;;;;;;;4.75;1.65;;;24.60;99.90;;;;;;5064540;28;20024;-68
2022/04/11 00:44:37;;;;;;;3.97;2.13;;;24.90;99.90;;;;;;5071337;28;20020;-68
2022/04/11 00:47:04;;;;;;;3.90;1.50;;;25.30;99.90;;;;;;5066595;28;20033;-68
2022/04/11 00:49:32;;;;;;;2.72;1.55;;;25.30;99.90;;;;;;5065266;28;20477;-68
2022/04/11 00:52:00;;;;;;;5.63;1.92;;;25.10;99.90;;;;;;5064883;28;20024;-68
2022/04/11 00:54:30;;;;;;;5.38;1.60;;;25.10;99.90;;;;;;5073295;28;20028;-68
2022/04/11 00:56:58;;;;;;;5.03;1.50;;;25.10;99.90;;;;;;5053831;28;20055;-68
2022/04/11 00:59:26;;;;;;;6.05;1.65;;;24.70;99.90;;;;;;5066577;28;20037;-68
2022/04/11 01:01:54;;;;;;;3.83;2.03;;;25.00;99.90;;;;;;5066163;28;20473;-68
2022/04/11 01:04:24;;;;;;;6.57;1.83;;;25.30;99.90;;;;;;5055536;28;20036;-68
2022/04/11 01:06:52;;;;;;;4.32;2.00;;;25.30;99.90;;;;;;5065506;28;20052;-69
2022/04/11 01:09:20;;;;;;;6.28;1.52;;;25.30;99.90;;;;;;5076915;22;20064;-68
2022/04/11 01:11:47;;;;;;;6.25;1.85;;;25.20;99.90;;;;;;5065984;22;20059;-68
2022/04/11 01:14:15;;;;;;;5.63;1.92;;;25.40;99.90;;;;;;5052288;28;20040;-68
2022/04/11 01:16:49;;;;;;;3.03;1.60;;;25.30;99.90;;;;;;5050932;28;20728;-68
2022/04/11 01:19:17;;;;;;;5.07;1.98;;;25.30;99.90;;;;;;5051344;28;20552;-68
2022/04/11 01:21:45;;;;;;;2.30;1.40;;;25.40;99.90;;;;;;5048306;28;20029;-68
2022/04/11 01:24:16;;;;;;;6.35;2.10;;;25.30;99.90;;;;;;5033792;28;20144;-68
2022/04/11 01:26:45;;;;;;;5.72;1.30;;;25.30;99.90;;;;;;5047395;28;20137;-69
2022/04/11 01:29:14;;;;;;;4.18;1.38;;;25.60;99.90;;;;;;5049606;28;20032;-69
2022/04/11 01:31:42;;;;;;;6.00;1.73;;;25.70;99.90;;;;;;5057641;22;20091;-69
2022/04/11 01:34:11;;;;;;;3.20;1.63;;;26.00;99.90;;;;;;5053791;28;20028;-69
2022/04/11 01:36:39;;;;;;;12.57;2.22;;;26.20;99.90;;;;;;5048734;28;20385;-69
2022/04/11 01:39:08;;;;;;;3.28;1.63;;;26.30;99.90;;;;;;5050801;28;20036;-69
2022/04/11 01:41:36;;;;;;;5.53;1.45;;;26.50;99.90;;;;;;5049698;28;20385;-69
2022/04/11 01:44:07;;;;;;;4.32;1.88;;;26.20;99.90;;;;;;5046198;28;20049;-70
2022/04/11 01:46:35;;;;;;;4.90;1.58;;;26.00;99.90;;;;;;5031708;28;20074;-70
2022/04/11 01:49:03;;;;;;;3.33;1.40;;;26.30;99.90;;;;;;5059425;23;20060;-70
2022/04/11 01:51:36;;;;;;;1.20;0.70;;;26.60;99.90;;;;;;5043616;28;20045;-70
2022/04/11 01:54:05;;;;;;;3.13;0.93;;;26.60;99.90;;;;;;5050586;28;20040;-70
2022/04/11 01:56:33;;;;;;;2.10;0.73;;;26.60;99.90;;;;;;5031164;28;20087;-69
2022/04/11 01:59:01;;;;;;;2.70;0.95;;;27.10;99.90;;;;;;5050004;28;20482;-69
2022/04/11 02:01:29;;;;;;;3.40;0.93;;;26.80;99.90;;;;;;5046981;28;20064;-69
2022/04/11 02:03:58;;;;;;;1.90;0.77;;;27.00;99.90;;;;;;5039424;28;20057;-68
2022/04/11 02:06:25;;;;;;;3.90;1.50;;;27.20;99.90;;;;;;5046530;28;20029;-70
2022/04/11 02:08:53;;;;;;;2.60;1.23;;;27.20;99.90;;;;;;5043379;28;20028;-70
2022/04/11 02:11:20;;;;;;;7.57;1.83;;;27.50;99.90;;;;;;5046104;28;20036;-70
2022/04/11 02:13:47;;;;;;;3.60;0.70;;;27.30;99.90;;;;;;5046347;28;20082;-70
2022/04/11 02:16:15;;;;;;;2.25;0.57;;;27.30;99.90;;;;;;5041340;28;20032;-70
2022/04/11 02:18:43;;;;;;;1.08;0.40;;;27.80;99.90;;;;;;5047431;28;20024;-70
2022/04/11 02:21:11;;;;;;;2.03;0.50;;;28.30;99.90;;;;;;5039059;23;20061;-70
2022/04/11 02:23:38;;;;;;;2.97;0.63;;;28.50;99.90;;;;;;5048417;28;20032;-70
2022/04/11 02:26:06;;;;;;;1.75;0.50;;;27.90;99.90;;;;;;5058014;28;20028;-70
2022/04/11 02:28:33;;;;;;;3.30;0.40;;;27.70;99.90;;;;;;5064892;28;20111;-70
2022/04/11 02:31:00;;;;;;;1.67;0.50;;;27.60;99.90;;;;;;5045147;28;20025;-70
2022/04/11 02:33:28;;;;;;;3.35;0.50;;;27.60;99.90;;;;;;5066467;28;20052;-70
2022/04/11 02:35:55;;;;;;;1.42;0.30;;;27.70;99.90;;;;;;5068580;28;20106;-70
2022/04/11 02:38:22;;;;;;;1.17;0.38;;;27.70;99.90;;;;;;5066803;28;20028;-70
2022/04/11 02:40:50;;;;;;;1.30;0.50;;;27.80;99.90;;;;;;5066926;28;20055;-70
2022/04/11 02:43:18;;;;;;;2.92;0.40;;;28.00;99.90;;;;;;5066455;28;20021;-69
2022/04/11 02:45:45;;;;;;;1.00;0.40;;;27.90;99.90;;;;;;5066870;28;20017;-69
2022/04/11 02:48:12;;;;;;;4.10;0.50;;;27.80;99.90;;;;;;5059415;28;20039;-69
2022/04/11 02:50:40;;;;;;;1.27;0.30;;;28.00;99.90;;;;;;5043657;28;20083;-70
2022/04/11 02:53:07;;;;;;;2.17;0.65;;;28.00;99.90;;;;;;5047695;28;20039;-70
2022/04/11 02:55:35;;;;;;;1.80;0.50;;;27.60;99.90;;;;;;5063758;28;20025;-70
2022/04/11 02:58:02;;;;;;;2.38;0.40;;;27.50;99.90;;;;;;5068085;28;20466;-70
2022/04/11 03:00:30;;;;;;;1.48;0.63;;;27.60;99.90;;;;;;5059004;28;20024;-70
2022/04/11 03:02:57;;;;;;;1.42;0.22;;;27.80;99.90;;;;;;5074176;28;20180;-70
2022/04/11 03:05:25;;;;;;;0.40;0.30;;;27.80;99.90;;;;;;5073271;28;20028;-69
2022/04/11 03:07:52;;;;;;;1.65;0.40;;;27.70;99.90;;;;;;5064929;28;20056;-70
2022/04/11 03:10:20;;;;;;;1.10;0.30;;;27.70;99.90;;;;;;5065708;28;20013;-70
2022/04/11 03:12:47;;;;;;;1.67;0.30;;;27.70;99.90;;;;;;5068782;28;20526;-70
2022/04/11 03:15:15;;;;;;;0.55;0.20;;;27.80;99.90;;;;;;5060821;28;20022;-69
2022/04/11 03:17:42;;;;;;;2.35;0.30;;;27.80;99.90;;;;;;5067789;28;21744;-70
2022/04/11 03:20:10;;;;;;;1.30;0.20;;;27.70;99.90;;;;;;5063058;28;20043;-70
2022/04/11 03:22:37;;;;;;;1.27;0.50;;;27.80;99.90;;;;;;5025314;28;20061;-70
2022/04/11 03:25:06;;;;;;;0.57;0.20;;;27.50;99.90;;;;;;5061631;23;20060;-70
2022/04/11 03:27:34;;;;;;;1.20;0.30;;;27.10;99.90;;;;;;5047578;28;20040;-70
2022/04/11 03:30:01;;;;;;;1.73;0.80;;;27.20;99.90;;;;;;5053877;28;20029;-70
2022/04/11 03:32:29;;;;;;;3.90;1.17;;;27.70;99.90;;;;;;5044651;28;20017;-70
2022/04/11 03:34:57;;;;;;;2.38;1.10;;;27.80;99.90;;;;;;5042247;28;20037;-70
2022/04/11 03:37:27;;;;;;;1.50;0.43;;;27.90;99.90;;;;;;5046512;28;20052;-70
2022/04/11 03:40:15;;;;;;;0.60;0.50;;;28.10;99.90;;;;;;5081194;23;20044;-70
2022/04/11 03:42:42;;;;;;;3.00;0.65;;;28.00;99.90;;;;;;5066483;28;20031;-70
2022/04/11 03:45:11;;;;;;;3.08;0.45;;;28.10;99.90;;;;;;5073355;28;20477;-71
2022/04/11 03:47:40;;;;;;;3.00;1.23;;;28.20;99.90;;;;;;5063126;28;20028;-70
2022/04/11 03:50:08;;;;;;;2.80;0.70;;;28.20;99.90;;;;;;5071160;28;20025;-70
2022/04/11 03:52:36;;;;;;;2.05;0.77;;;28.50;99.90;;;;;;5060877;28;20024;-70
2022/04/11 03:55:05;;;;;;;0.98;0.30;;;28.10;99.90;;;;;;5053446;28;20102;-70
2022/04/11 03:57:34;;;;;;;1.17;0.25;;;28.10;99.90;;;;;;5054444;28;20090;-70
2022/04/11 04:00:02;;;;;;;2.13;0.50;;;27.90;99.90;;;;;;5043447;23;20127;-70
2022/04/11 04:02:29;;;;;;;2.78;0.55;;;27.60;99.90;;;;;;5029578;28;20037;-70
2022/04/11 04:04:57;;;;;;;2.17;0.70;;;27.60;99.90;;;;;;5025948;28;20496;-70
2022/04/11 04:07:25;;;;;;;3.63;0.68;;;27.60;99.90;;;;;;5041911;22;20052;-70
2022/04/11 04:09:53;;;;;;;2.03;0.68;;;27.60;99.90;;;;;;5050044;28;20554;-71
2022/04/11 04:12:21;;;;;;;2.58;0.70;;;27.50;99.90;;;;;;5052303;28;20037;-70
2022/04/11 04:14:50;;;;;;;1.83;0.57;;;27.20;99.90;;;;;;5048234;28;20020;-70
2022/04/11 04:17:17;;;;;;;5.95;0.70;;;27.10;99.90;;;;;;5066962;28;20033;-71
2022/04/11 04:19:45;;;;;;;5.10;0.90;;;26.80;99.90;;;;;;5051515;28;20051;-70
2022/04/11 04:22:13;;;;;;;6.90;1.20;;;26.70;99.90;;;;;;5070362;28;20066;-70
2022/04/11 04:24:41;;;;;;;3.45;0.70;;;26.60;99.90;;;;;;5056688;28;20057;-70
2022/04/11 04:27:09;;;;;;;3.38;0.65;;;26.40;99.90;;;;;;5073299;28;20059;-70
2022/04/11 04:29:37;;;;;;;3.13;0.85;;;26.40;99.90;;;;;;5064179;28;20029;-70
2022/04/11 04:32:05;;;;;;;3.90;0.60;;;26.40;99.90;;;;;;5060557;28;20024;-70
2022/04/11 04:34:33;;;;;;;2.88;0.85;;;26.20;99.90;;;;;;5064201;28;20025;-71
2022/04/11 04:37:00;;;;;;;7.50;0.77;;;26.00;99.90;;;;;;5078574;28;20033;-70
2022/04/11 04:39:28;;;;;;;3.45;0.70;;;26.00;99.90;;;;;;5070632;28;20492;-71
2022/04/11 04:41:56;;;;;;;4.65;1.00;;;25.90;99.90;;;;;;5069672;28;20017;-70
2022/04/11 04:44:24;;;;;;;3.40;0.95;;;25.70;99.90;;;;;;5072069;28;20016;-70
2022/04/11 04:46:52;;;;;;;4.88;1.05;;;25.60;99.90;;;;;;5064326;28;20119;-71
2022/04/11 04:49:19;;;;;;;3.65;0.90;;;25.60;99.90;;;;;;5078822;28;20462;-70
2022/04/11 04:51:47;;;;;;;7.57;1.05;;;25.80;99.90;;;;;;5069794;28;20581;-70
2022/04/11 04:54:15;;;;;;;3.45;0.90;;;25.80;99.90;;;;;;5073110;22;20416;-71
2022/04/11 04:56:43;;;;;;;3.33;0.95;;;25.70;99.90;;;;;;5047166;28;20029;-70
2022/04/11 04:59:10;;;;;;;2.45;1.00;;;25.60;99.90;;;;;;5048713;28;20516;-70
2022/04/11 05:01:38;;;;;;;3.75;0.70;;;25.30;99.90;;;;;;5050262;28;20175;-70
2022/04/11 05:04:06;;;;;;;2.35;0.70;;;25.20;99.90;;;;;;5045579;28;20060;-70
2022/04/11 05:06:34;;;;;;;1.90;0.80;;;25.10;99.90;;;;;;5044263;28;20481;-72
2022/04/11 05:09:01;;;;;;;5.45;0.50;;;25.00;99.90;;;;;;5052982;28;20477;-70
2022/04/11 05:11:29;;;;;;;4.10;1.05;;;25.00;99.90;;;;;;5050268;28;20036;-70
2022/04/11 05:13:57;;;;;;;4.68;0.98;;;25.00;99.90;;;;;;5053144;28;20025;-70
2022/04/11 05:16:25;;;;;;;4.55;1.10;;;25.00;99.90;;;;;;5043168;28;20036;-71
2022/04/11 05:18:52;;;;;;;2.90;1.42;;;25.00;99.90;;;;;;5053812;28;20028;-69
2022/04/11 05:21:19;;;;;;;2.10;0.68;;;24.90;99.90;;;;;;5038772;28;20075;-72
2022/04/11 05:23:47;;;;;;;4.97;1.15;;;24.70;99.90;;;;;;5050281;28;20017;-70
2022/04/11 05:26:14;;;;;;;3.83;1.05;;;24.60;99.90;;;;;;5033016;28;20075;-71
2022/04/11 05:28:41;;;;;;;4.80;1.23;;;24.60;99.90;;;;;;5053813;28;20028;-71
2022/04/11 05:31:08;;;;;;;3.40;0.70;;;24.50;99.90;;;;;;5025824;28;20112;-70
2022/04/11 05:33:36;;;;;;;5.05;1.30;;;24.50;99.90;;;;;;5031561;28;20025;-71
2022/04/11 05:36:03;;;;;;;5.40;1.50;;;24.40;99.90;;;;;;5045695;28;20402;-70
2022/04/11 05:38:31;;;;;;;5.68;1.20;;;24.50;99.90;;;;;;5038313;28;20025;-71
2022/04/11 05:40:58;;;;;;;10.35;1.60;;;24.40;99.90;;;;;;5048322;28;20133;-70
2022/04/11 05:43:25;;;;;;;3.85;1.15;;;24.30;99.90;;;;;;5066803;22;20046;-71
2022/04/11 05:45:53;;;;;;;3.20;0.82;;;24.30;99.90;;;;;;5049170;28;20062;-70
2022/04/11 05:48:20;;;;;;;4.70;1.13;;;24.20;99.90;;;;;;5065824;28;20028;-70
2022/04/11 05:50:47;;;;;;;4.25;1.05;;;24.10;99.90;;;;;;5070435;28;20031;-70
2022/04/11 05:53:15;;;;;;;6.05;0.70;;;24.10;99.90;;;;;;5068564;28;20396;-70
2022/04/11 05:55:42;;;;;;;3.63;0.80;;;24.10;99.90;;;;;;5065923;28;20447;-72
2022/04/11 05:58:09;;;;;;;5.03;0.68;;;23.90;99.90;;;;;;5067458;28;20101;-74
2022/04/11 06:00:36;;;;;;;8.52;1.20;;;23.80;99.90;;;;;;5071544;28;20118;-73
2022/04/11 06:03:04;;;;;;;6.22;1.65;;;23.80;99.90;;;;;;5071015;28;20483;-73
2022/04/11 06:05:31;;;;;;;3.75;1.05;;;23.60;99.90;;;;;;5067312;28;20535;-72
2022/04/11 06:07:58;;;;;;;10.18;1.63;;;23.60;99.90;;;;;;5065085;28;20395;-73
2022/04/11 06:10:26;;;;;;;4.75;1.55;;;23.60;99.90;;;;;;5070396;28;20024;-73
2022/04/11 06:12:54;;;;;;;4.40;1.52;;;23.60;99.90;;;;;;5069703;28;20031;-73
2022/04/11 06:15:21;;;;;;;6.82;1.55;;;23.60;99.90;;;;;;5067106;28;20017;-72
2022/04/11 06:17:48;;;;;;;5.28;1.25;;;23.50;99.90;;;;;;5068511;28;20032;-72
2022/04/11 06:20:17;;;;;;;3.90;1.20;;;23.50;99.90;;;;;;5065915;28;20459;-72
2022/04/11 06:22:46;;;;;;;4.60;1.80;;;23.40;99.90;;;;;;5052216;28;20036;-73
2022/04/11 06:25:13;;;;;;;7.38;1.50;;;23.40;99.90;;;;;;5062596;28;20098;-70
2022/04/11 06:27:41;;;;;;;5.45;1.40;;;23.40;99.90;;;;;;5072108;28;20028;-72
2022/04/11 06:30:08;;;;;;;9.80;2.35;;;23.20;99.90;;;;;;5054147;28;20030;-72
2022/04/11 06:32:36;;;;;;;6.45;1.52;;;23.20;99.90;;;;;;5066400;28;20485;-73
2022/04/11 06:35:03;;;;;;;9.30;1.63;;;23.10;99.90;;;;;;5061622;22;20117;-72
2022/04/11 06:37:30;;;;;;;9.50;2.38;;;23.00;99.90;;;;;;5029064;28;20041;-73
2022/04/11 06:39:58;;;;;;;12.18;2.70;;;23.00;99.90;;;;;;5032151;28;20045;-72
2022/04/11 06:42:25;;;;;;;8.50;1.67;;;22.90;99.90;;;;;;5030222;28;20029;-71
2022/04/11 06:44:52;;;;;;;7.90;1.88;;;22.90;99.90;;;;;;5028546;28;20087;-72
2022/04/11 06:47:21;;;;;;;11.43;2.33;;;22.90;99.90;;;;;;5032373;28;20018;-72
2022/04/11 06:49:48;;;;;;;7.35;1.77;;;22.80;99.90;;;;;;5031724;28;20646;-71
2022/04/11 06:52:16;;;;;;;9.15;1.95;;;22.80;99.90;;;;;;5032760;28;20021;-74
2022/04/11 06:54:45;;;;;;;10.23;2.35;;;22.70;99.90;;;;;;5027666;28;20029;-74
2022/04/11 06:57:12;;;;;;;12.60;2.50;;;22.70;99.90;;;;;;5029063;28;20037;-73
2022/04/11 06:59:40;;;;;;;9.13;2.28;;;22.60;99.90;;;;;;5036860;28;20032;-73
2022/04/11 07:02:07;;;;;;;10.88;1.70;;;22.60;99.90;;;;;;5038080;28;20030;-74
2022/04/11 07:04:35;;;;;;;8.90;2.05;;;22.60;99.90;;;;;;5028023;28;20061;-75
2022/04/11 07:07:02;;;;;;;10.88;2.20;;;22.60;99.90;;;;;;5031257;28;20037;-74
2022/04/11 07:09:31;;;;;;;8.38;2.25;;;22.50;99.90;;;;;;5034232;28;20164;-73
2022/04/11 07:11:58;;;;;;;11.65;2.88;;;22.40;99.90;;;;;;5036942;28;20068;-74
2022/04/11 07:14:26;;;;;;;14.10;3.55;;;22.40;99.90;;;;;;5034301;28;20432;-76
2022/04/11 07:16:53;;;;;;;11.82;2.55;;;22.40;99.90;;;;;;5036123;28;20038;-74
2022/04/11 07:19:21;;;;;;;11.90;3.20;;;22.30;99.90;;;;;;5032809;28;20489;-74
2022/04/11 07:21:48;;;;;;;14.68;3.00;;;22.30;99.90;;;;;;5036286;28;20029;-74
2022/04/11 07:24:16;;;;;;;14.00;3.05;;;22.20;99.90;;;;;;5035594;28;20025;-75
2022/04/11 07:26:43;;;;;;;13.30;3.55;;;22.20;99.90;;;;;;5034926;28;20047;-74
2022/04/11 07:29:11;;;;;;;11.55;3.00;;;22.20;99.90;;;;;;5037052;28;20030;-74
2022/04/11 07:31:38;;;;;;;12.07;2.95;;;22.10;99.90;;;;;;5030558;28;20359;-73
2022/04/11 07:34:05;;;;;;;14.02;3.25;;;22.10;99.90;;;;;;5042294;28;20124;-74
2022/04/11 07:36:33;;;;;;;16.42;4.47;;;22.10;99.90;;;;;;5051458;28;20117;-73
2022/04/11 07:39:00;;;;;;;17.13;4.22;;;22.10;99.90;;;;;;5053247;28;20124;-73
2022/04/11 07:41:27;;;;;;;19.10;5.78;;;22.00;99.90;;;;;;5050416;28;20032;-73
2022/04/11 07:43:56;;;;;;;28.67;6.22;;;22.10;99.90;;;;;;5068729;22;20445;-74
2022/04/11 07:46:24;;;;;;;28.50;8.82;;;22.10;99.90;;;;;;5029299;28;20028;-73
2022/04/11 07:48:51;;;;;;;29.90;9.32;;;22.00;99.90;;;;;;5050651;28;20103;-73
2022/04/11 07:51:18;;;;;;;31.38;10.30;;;22.00;99.90;;;;;;5058204;28;20028;-73
2022/04/11 07:53:46;;;;;;;35.90;10.07;;;21.90;99.90;;;;;;5037762;28;20025;-73
2022/04/11 07:56:13;;;;;;;26.05;10.15;;;21.90;99.90;;;;;;5051647;23;20075;-76
2022/04/11 07:58:40;;;;;;;25.95;9.18;;;21.90;99.90;;;;;;5035118;28;20029;-75
2022/04/11 08:01:07;;;;;;;33.15;10.25;;;21.90;99.90;;;;;;5089308;23;20045;-75
2022/04/11 08:03:35;;;;;;;28.30;8.98;;;21.90;99.90;;;;;;5066848;22;20052;-74
2022/04/11 08:06:02;;;;;;;25.25;8.98;;;21.80;99.90;;;;;;5070598;28;20024;-77
2022/04/11 08:08:29;;;;;;;25.75;8.57;;;21.80;99.90;;;;;;5071956;28;20085;-76
2022/04/11 08:10:56;;;;;;;29.75;9.07;;;21.80;99.90;;;;;;5066288;28;20061;-72
2022/04/11 08:13:24;;;;;;;25.50;9.15;;;21.80;99.90;;;;;;5054155;28;20020;-76
2022/04/11 08:15:51;;;;;;;31.13;8.80;;;21.80;99.90;;;;;;5048404;23;20053;-78
2022/04/11 08:18:18;;;;;;;32.83;9.30;;;21.80;99.90;;;;;;5044596;28;20108;-78
2022/04/11 08:20:46;;;;;;;25.98;7.82;;;21.80;99.90;;;;;;5046069;28;20025;-78
2022/04/11 08:23:13;;;;;;;21.42;7.28;;;21.80;99.90;;;;;;5050946;28;20029;-78
2022/04/11 08:25:40;;;;;;;21.13;7.70;;;21.70;99.90;;;;;;5042468;28;20063;-77
2022/04/11 08:28:07;;;;;;;26.20;7.90;;;21.80;99.90;;;;;;5035825;28;20067;-75
2022/04/11 08:30:35;;;;;;;32.38;8.38;;;21.70;99.90;;;;;;5034821;28;20018;-75
2022/04/11 08:33:03;;;;;;;26.23;7.90;;;21.70;99.90;;;;;;5013008;23;20447;-77
2022/04/11 08:35:30;;;;;;;23.27;6.57;;;21.80;99.90;;;;;;4996877;28;20111;-75
2022/04/11 08:37:57;;;;;;;23.73;6.60;;;21.70;99.90;;;;;;5030485;28;20049;-74
2022/04/11 08:40:25;;;;;;;28.33;6.10;;;21.70;99.90;;;;;;5033628;28;20418;-74
2022/04/11 08:42:55;;;;;;;27.48;6.95;;;21.70;99.90;;;;;;5035714;28;20029;-75
2022/04/11 08:45:24;;;;;;;27.13;6.93;;;21.60;99.90;;;;;;5031692;28;20032;-77
2022/04/11 08:47:56;;;;;;;23.92;6.60;;;21.70;99.90;;;;;;5032210;28;20036;-76
2022/04/11 08:50:24;;;;;;;27.48;7.22;;;21.70;99.90;;;;;;5023427;28;20032;-74
2022/04/11 08:52:53;;;;;;;23.95;6.55;;;21.70;99.90;;;;;;5032350;28;20108;-76
2022/04/11 08:55:21;;;;;;;29.52;7.53;;;21.70;99.90;;;;;;5032609;28;20052;-77
2022/04/11 08:57:49;;;;;;;25.05;6.03;;;21.70;99.90;;;;;;5029728;28;20078;-76
2022/04/11 09:00:22;;;;;;;36.35;6.68;;;21.70;99.90;;;;;;5028946;28;20421;-75
2022/04/11 09:02:49;;;;;;;27.90;5.43;;;21.80;99.90;;;;;;5015232;28;20033;-75
2022/04/11 09:05:25;;;;;;;29.58;5.75;;;21.70;99.90;;;;;;5056808;23;20131;-76
2022/04/11 09:07:57;;;;;;;28.85;6.60;;;21.70;99.90;;;;;;5071185;28;20154;-75
2022/04/11 09:10:36;;;;;;;27.83;6.57;;;21.70;99.90;;;;;;5062678;28;20028;-76
2022/04/11 09:13:05;;;;;;;30.25;5.85;;;21.70;99.90;;;;;;5045298;28;20044;-75
2022/04/11 09:15:48;;;;;;;23.48;5.20;;;21.70;99.90;;;;;;5058474;28;20021;-76
2022/04/11 09:18:15;;;;;;;27.00;5.05;;;21.70;99.90;;;;;;5063188;28;20381;-75
2022/04/11 09:20:43;;;;;;;26.75;5.25;;;21.70;99.90;;;;;;5070370;28;20115;-76
2022/04/11 09:23:21;;;;;;;24.40;5.10;;;21.60;99.90;;;;;;5058388;28;20674;-76
2022/04/11 09:25:49;;;;;;;25.38;5.80;;;21.60;99.90;;;;;;5071360;28;20451;-76
2022/04/11 09:28:16;;;;;;;21.80;5.72;;;21.60;99.90;;;;;;5049708;28;20111;-76
2022/04/11 09:30:44;;;;;;;22.67;5.38;;;21.60;99.90;;;;;;5052688;28;20163;-75
2022/04/11 09:33:12;;;;;;;22.15;5.55;;;21.60;99.90;;;;;;5064340;28;20021;-76
2022/04/11 09:35:47;;;;;;;24.77;5.25;;;21.60;99.90;;;;;;5068425;28;20070;-74
2022/04/11 09:38:18;;;;;;;28.05;6.47;;;21.70;99.90;;;;;;5058915;28;20563;-75
2022/04/11 09:40:50;;;;;;;22.40;5.10;;;21.60;99.90;;;;;;5067997;28;20075;-76
2022/04/11 09:43:26;;;;;;;15.43;4.03;;;21.60;99.90;;;;;;5066164;28;20028;-75
2022/04/11 09:45:54;;;;;;;21.42;6.28;;;21.60;99.90;;;;;;5051797;28;20017;-76
2022/04/11 09:48:25;;;;;;;27.38;5.07;;;21.60;99.90;;;;;;5071583;28;20384;-76
2022/04/11 09:50:54;;;;;;;25.55;6.05;;;21.50;99.90;;;;;;5071327;28;20033;-76
2022/04/11 09:53:24;;;;;;;30.58;5.72;;;21.50;99.90;;;;;;5067830;28;20029;-76
2022/04/11 09:55:53;;;;;;;25.45;5.20;;;21.50;99.90;;;;;;5066781;28;20025;-75
2022/04/11 09:58:22;;;;;;;20.23;5.80;;;21.40;99.90;;;;;;5048132;28;20021;-76
2022/04/11 10:00:51;;;;;;;28.23;5.47;;;21.30;99.90;;;;;;5071076;28;20031;-76
2022/04/11 10:03:25;;;;;;;27.05;5.97;;;21.10;99.90;;;;;;5038367;28;20033;-76
2022/04/11 10:05:53;;;;;;;32.72;6.20;;;21.00;99.90;;;;;;5075407;23;20470;-76
2022/04/11 10:08:25;;;;;;;29.77;5.10;;;20.90;99.90;;;;;;5047314;28;20033;-75
2022/04/11 10:10:54;;;;;;;22.42;5.82;;;20.90;99.90;;;;;;5046914;28;20052;-74
2022/04/11 10:13:21;;;;;;;22.30;5.50;;;20.90;99.90;;;;;;5050558;23;20140;-74
2022/04/11 10:15:49;;;;;;;29.92;5.57;;;20.90;99.90;;;;;;5050766;28;20722;-74
2022/04/11 10:18:28;;;;;;;25.92;5.70;;;20.90;99.90;;;;;;5051900;28;20482;-74
2022/04/11 10:21:02;;;;;;;19.30;6.03;;;20.80;99.90;;;;;;5066023;22;20102;-74
2022/04/11 10:26:16;;;;;;;31.00;6.53;;;20.90;99.90;;;;;;5068207;22;20061;-74
2022/04/11 10:28:51;;;;;;;34.80;6.47;;;20.80;99.90;;;;;;5053269;28;20021;-74
2022/04/11 10:31:19;;;;;;;27.73;5.65;;;20.90;99.90;;;;;;5034264;28;20029;-73
2022/04/11 10:33:57;;;;;;;29.05;5.82;;;20.90;99.90;;;;;;5051674;23;20052;-75
2022/04/11 10:36:34;;;;;;;32.28;6.22;;;20.90;99.90;;;;;;5051777;28;20043;-75
2022/04/11 10:39:16;;;;;;;35.45;7.07;;;20.90;99.90;;;;;;5051711;28;20021;-75
2022/04/11 10:41:56;;;;;;;37.83;6.68;;;21.00;99.90;;;;;;5049085;28;20032;-73
2022/04/11 10:44:34;;;;;;;28.58;7.00;;;21.00;99.90;;;;;;5051175;28;20535;-74
2022/04/11 10:47:10;;;;;;;36.15;6.38;;;21.00;99.90;;;;;;5050443;28;20037;-75
2022/04/11 10:49:58;;;;;;;29.80;6.13;;;21.00;99.90;;;;;;5065015;22;20057;-75
2022/04/11 10:52:29;;;;;;;28.45;5.95;;;21.00;99.90;;;;;;5053783;28;20040;-74
2022/04/11 10:55:08;;;;;;;24.83;5.82;;;21.00;99.90;;;;;;5048307;28;20386;-77
2022/04/11 10:57:41;;;;;;;25.15;6.30;;;20.90;99.90;;;;;;5033394;28;20045;-77
2022/04/11 11:00:31;;;;;;;33.67;6.00;;;20.90;99.90;;;;;;5055138;28;20037;-77
2022/04/11 11:03:01;;;;;;;34.38;6.30;;;20.80;99.90;;;;;;5040689;28;20036;-78
2022/04/11 11:05:49;;;;;;;35.33;7.35;;;20.80;99.90;;;;;;5032543;28;20029;-78
2022/04/11 11:08:17;;;;;;;33.63;6.28;;;20.80;99.90;;;;;;5046466;28;20028;-76
2022/04/11 11:10:57;;;;;;;29.70;5.25;;;20.80;99.90;;;;;;5049994;28;20029;-78
2022/04/11 11:13:44;;;;;;;34.75;5.80;;;20.80;99.90;;;;;;5051375;28;20017;-77
2022/04/11 11:16:11;;;;;;;24.88;6.07;;;20.80;99.90;;;;;;5055232;28;20037;-77
2022/04/11 11:18:48;;;;;;;31.98;5.95;;;20.80;99.90;;;;;;5048437;28;20030;-78
2022/04/11 11:21:19;;;;;;;36.90;6.93;;;20.80;99.90;;;;;;5046939;28;20037;-77
2022/04/11 11:24:06;;;;;;;27.73;5.82;;;20.80;99.90;;;;;;5036779;22;20640;-77
2022/04/11 11:26:48;;;;;;;28.02;6.68;;;20.80;99.90;;;;;;5031428;28;20021;-78
2022/04/11 11:29:43;;;;;;;26.35;5.65;;;20.80;99.90;;;;;;5036089;28;20029;-77
2022/04/11 11:32:12;;;;;;;26.20;5.88;;;20.70;99.90;;;;;;5030802;28;20061;-77
2022/04/11 11:34:41;;;;;;;27.92;5.85;;;20.70;99.90;;;;;;5031217;28;20497;-77
2022/04/11 11:37:11;;;;;;;30.88;5.90;;;20.70;99.90;;;;;;5029703;28;20026;-77
2022/04/11 11:39:40;;;;;;;33.85;5.88;;;20.70;99.90;;;;;;5031472;28;20067;-77
2022/04/11 11:42:12;;;;;;;33.47;5.45;;;20.70;99.90;;;;;;5015081;28;20036;-78
2022/04/11 11:44:44;;;;;;;23.40;4.63;;;20.70;99.90;;;;;;5012519;28;20049;-76
2022/04/11 11:47:12;;;;;;;24.15;6.05;;;20.70;99.90;;;;;;5034146;28;20074;-76
2022/04/11 11:49:44;;;;;;;27.80;4.40;;;20.70;99.90;;;;;;5033966;28;20026;-76
2022/04/11 11:52:16;;;;;;;24.17;6.15;;;20.60;99.90;;;;;;5035916;28;20029;-77
2022/04/11 11:54:46;;;;;;;22.88;4.47;;;20.50;99.90;;;;;;5034621;28;20038;-76
2022/04/11 11:57:30;;;;;;;26.98;5.18;;;20.50;99.90;;;;;;5032215;28;20021;-76
2022/04/11 12:00:03;;;;;;;30.83;4.90;;;20.40;99.90;;;;;;5017371;28;20048;-77
2022/04/11 12:05:18;;;;;;;25.05;4.50;;;20.30;99.90;;;;;;5032412;28;20573;-77
2022/04/11 12:07:47;;;;;;;27.63;4.88;;;20.30;99.90;;;;;;5034090;28;20009;-77
2022/04/11 12:10:15;;;;;;;28.52;5.32;;;20.30;99.90;;;;;;5034149;28;20062;-77
2022/04/11 12:12:47;;;;;;;27.52;5.07;;;20.30;99.90;;;;;;5034325;28;20032;-77
2022/04/11 12:15:15;;;;;;;28.08;6.10;;;20.30;99.90;;;;;;5033634;28;20032;-77
2022/04/11 12:17:49;;;;;;;23.58;4.93;;;20.30;99.90;;;;;;5015974;28;20559;-77
2022/04/11 12:20:21;;;;;;;28.92;5.72;;;20.20;99.90;;;;;;5033461;28;20040;-77
2022/04/11 12:23:12;;;;;;;26.42;5.40;;;20.10;99.90;;;;;;5050331;22;20383;-77
2022/04/11 12:25:44;;;;;;;24.15;5.07;;;20.10;99.90;;;;;;5034405;28;20026;-77
2022/04/11 12:28:15;;;;;;;24.17;5.10;;;20.20;99.90;;;;;;5068766;22;20124;-77
2022/04/11 12:30:45;;;;;;;24.08;4.43;;;20.20;99.90;;;;;;5053589;23;20118;-76
2022/04/11 12:36:13;;;;;;;20.98;5.50;;;20.10;99.90;;;;;;5056543;28;20045;-77
2022/04/11 12:38:48;;;;;;;27.20;5.47;;;20.10;99.90;;;;;;5043674;28;20383;-77
2022/04/11 12:41:32;;;;;;;25.55;4.82;;;20.10;99.90;;;;;;5053041;28;20378;-77
2022/04/11 12:44:10;;;;;;;25.50;5.20;;;20.10;99.90;;;;;;5052452;23;20041;-77
2022/04/11 12:46:48;;;;;;;26.95;4.22;;;20.10;99.90;;;;;;5049643;28;20033;-77
2022/04/11 12:49:18;;;;;;;29.15;5.88;;;20.10;99.90;;;;;;5049255;28;20032;-76
2022/04/11 12:52:02;;;;;;;24.45;5.07;;;20.10;99.90;;;;;;5052791;28;20025;-77
2022/04/11 12:54:39;;;;;;;24.00;5.20;;;20.10;99.90;;;;;;5033501;28;20067;-77
2022/04/11 12:57:08;;;;;;;20.48;4.40;;;20.10;99.90;;;;;;5051546;28;20036;-77
2022/04/11 12:59:38;;;;;;;26.25;5.22;;;20.10;99.90;;;;;;5061661;23;20433;-77
2022/04/11 13:02:10;;;;;;;27.20;5.15;;;20.10;99.90;;;;;;5036148;28;20056;-76